Time;durP1;ratioP1;P1;durP2;ratioP2;P2;SDS_P1;SDS_P2;PMS_P1;PMS_P2;Temp;Humidity;BMP_temperature;BMP_pressure;BME280_temperature;BME280_humidity;BME280_pressure;Samples;Min_cycle;Max_cycle;Signal;HPM_P1;HPM_P2
2021/08/27 00:02:17;;;;;;;3.13;2.10;;;15.60;99.90;;;;;;5022685;28;24471;-86
2021/08/27 00:04:45;;;;;;;3.20;2.00;;;15.60;99.90;;;;;;5024444;28;24416;-85
2021/08/27 00:07:11;;;;;;;4.20;2.10;;;15.40;99.90;;;;;;5004072;28;24435;-89
2021/08/27 00:09:37;;;;;;;2.40;2.17;;;15.40;99.90;;;;;;5026998;28;24448;-83
2021/08/27 00:12:03;;;;;;;4.50;2.27;;;15.40;99.90;;;;;;5011255;28;24447;-85
2021/08/27 00:14:31;;;;;;;3.40;2.30;;;15.40;99.90;;;;;;5018075;28;24525;-87
2021/08/27 00:16:56;;;;;;;2.47;2.08;;;15.40;99.90;;;;;;5023388;28;24442;-85
2021/08/27 00:19:22;;;;;;;3.08;2.10;;;15.40;99.90;;;;;;5021578;28;24447;-87
2021/08/27 00:21:48;;;;;;;2.53;2.00;;;15.30;99.90;;;;;;5023919;28;24496;-87
2021/08/27 00:24:13;;;;;;;3.15;2.10;;;15.30;99.90;;;;;;5007348;28;25132;-83
2021/08/27 00:26:39;;;;;;;2.93;2.07;;;15.30;99.90;;;;;;5022492;28;24491;-85
2021/08/27 00:29:05;;;;;;;3.00;2.00;;;15.20;99.90;;;;;;5025155;28;24550;-84
2021/08/27 00:31:35;;;;;;;4.40;2.40;;;15.60;99.90;;;;;;5011904;28;24440;-85
2021/08/27 00:34:03;;;;;;;2.42;2.10;;;15.20;99.90;;;;;;5007617;28;24451;-83
2021/08/27 00:36:29;;;;;;;2.65;2.30;;;15.10;99.90;;;;;;5001938;28;24589;-86
2021/08/27 00:38:54;;;;;;;3.33;2.57;;;15.10;99.90;;;;;;5004764;28;24508;-86
2021/08/27 00:41:29;;;;;;;2.90;2.50;;;15.10;99.90;;;;;;5022919;28;24477;-83
2021/08/27 00:43:55;;;;;;;3.50;2.50;;;15.10;99.90;;;;;;5009080;28;24483;-86
2021/08/27 00:46:20;;;;;;;3.90;2.03;;;15.10;99.90;;;;;;5022923;28;24420;-85
2021/08/27 00:48:46;;;;;;;4.90;2.20;;;15.10;99.90;;;;;;5023860;28;24654;-86
2021/08/27 00:51:12;;;;;;;3.00;2.28;;;15.00;99.90;;;;;;5024587;28;24427;-85
2021/08/27 00:53:40;;;;;;;4.30;2.57;;;15.00;99.90;;;;;;5023279;28;24471;-84
2021/08/27 00:56:07;;;;;;;4.90;2.10;;;14.90;99.90;;;;;;5007457;28;24420;-84
2021/08/27 00:58:33;;;;;;;3.00;2.10;;;14.90;99.90;;;;;;5025953;28;24435;-86
2021/08/27 01:00:58;;;;;;;3.70;2.60;;;15.00;99.90;;;;;;5020955;28;24675;-88
2021/08/27 01:03:26;;;;;;;4.70;2.30;;;14.90;99.90;;;;;;5025158;28;24520;-84
2021/08/27 01:06:20;;;;;;;2.97;2.40;;;14.90;99.90;;;;;;5023003;28;28184;-86
2021/08/27 01:09:01;;;;;;;3.75;2.30;;;14.90;99.90;;;;;;5006669;28;24432;-85
2021/08/27 01:11:45;;;;;;;2.92;2.25;;;14.90;99.90;;;;;;5010034;28;24558;-84
2021/08/27 01:14:26;;;;;;;2.90;2.30;;;14.90;99.90;;;;;;5008667;28;24459;-87
2021/08/27 01:17:07;;;;;;;3.05;2.20;;;14.80;99.90;;;;;;5010475;28;24409;-88
2021/08/27 01:20:14;;;;;;;3.78;2.50;;;14.80;99.90;;;;;;5026986;28;24428;-85
2021/08/27 01:23:04;;;;;;;4.03;2.50;;;14.80;99.90;;;;;;4995735;28;24444;-85
2021/08/27 01:25:35;;;;;;;3.50;2.40;;;14.80;99.90;;;;;;5026888;28;24430;-83
2021/08/27 01:28:03;;;;;;;2.85;2.40;;;14.80;99.90;;;;;;5013578;28;24439;-86
2021/08/27 01:30:45;;;;;;;2.80;2.28;;;14.70;99.90;;;;;;5012369;28;24511;-86
2021/08/27 01:33:23;;;;;;;5.15;2.60;;;14.80;99.90;;;;;;5031591;28;24425;-83
2021/08/27 01:36:00;;;;;;;3.60;2.42;;;14.80;99.90;;;;;;5030649;28;24613;-85
2021/08/27 01:38:31;;;;;;;2.47;2.28;;;14.70;99.90;;;;;;5012241;28;24470;-85
2021/08/27 01:40:57;;;;;;;3.20;2.50;;;14.80;99.90;;;;;;5012749;28;25076;-85
2021/08/27 01:43:25;;;;;;;3.30;2.30;;;14.70;99.90;;;;;;5030067;28;24444;-86
2021/08/27 01:45:57;;;;;;;3.10;2.40;;;15.10;99.90;;;;;;5011572;28;24519;-86
2021/08/27 01:48:27;;;;;;;3.63;2.40;;;14.80;99.90;;;;;;5025886;28;24492;-86
2021/08/27 01:50:54;;;;;;;3.40;2.60;;;14.80;99.90;;;;;;5010347;28;24471;-86
2021/08/27 01:53:27;;;;;;;4.18;2.50;;;14.80;99.90;;;;;;5028078;28;24428;-85
2021/08/27 01:56:01;;;;;;;4.07;2.70;;;14.80;99.90;;;;;;5025533;28;26315;-86
2021/08/27 01:58:30;;;;;;;3.08;2.40;;;14.80;99.90;;;;;;5027088;28;24792;-86
2021/08/27 02:00:57;;;;;;;3.10;2.30;;;14.80;99.90;;;;;;5027905;28;24668;-88
2021/08/27 02:03:24;;;;;;;2.40;2.20;;;14.70;99.90;;;;;;5019909;28;24455;-85
2021/08/27 02:05:50;;;;;;;3.22;2.42;;;14.70;99.90;;;;;;5026360;28;24501;-88
2021/08/27 02:08:19;;;;;;;3.92;2.30;;;14.70;99.90;;;;;;5030122;28;24549;-86
2021/08/27 02:10:48;;;;;;;3.10;2.10;;;14.80;99.90;;;;;;5027156;28;24490;-86
2021/08/27 02:13:16;;;;;;;4.00;2.20;;;15.10;99.90;;;;;;5028265;28;24523;-85
2021/08/27 02:15:43;;;;;;;4.60;2.20;;;14.70;99.90;;;;;;5026146;28;24539;-84
2021/08/27 02:18:08;;;;;;;3.33;2.50;;;14.80;99.90;;;;;;5010094;28;24454;-85
2021/08/27 02:20:37;;;;;;;3.80;2.30;;;14.70;99.90;;;;;;5010124;28;24452;-84
2021/08/27 02:23:05;;;;;;;3.70;2.20;;;14.80;99.90;;;;;;5005835;28;24496;-84
2021/08/27 02:25:33;;;;;;;2.70;2.37;;;15.20;99.90;;;;;;5010864;28;24424;-85
2021/08/27 02:28:03;;;;;;;4.32;2.20;;;14.90;99.90;;;;;;5025622;28;24424;-87
2021/08/27 02:30:32;;;;;;;3.13;2.00;;;14.90;99.90;;;;;;5028882;28;25018;-84
2021/08/27 02:33:00;;;;;;;3.63;2.43;;;15.00;99.90;;;;;;5012269;28;24525;-85
2021/08/27 02:35:26;;;;;;;3.90;2.43;;;15.00;99.90;;;;;;5031189;28;24420;-84
2021/08/27 02:37:53;;;;;;;3.95;2.20;;;15.00;99.90;;;;;;5025998;28;24450;-85
2021/08/27 02:40:22;;;;;;;2.40;2.20;;;15.30;99.90;;;;;;5027353;28;24448;-83
2021/08/27 02:42:47;;;;;;;2.60;2.10;;;15.00;99.90;;;;;;5028629;28;24498;-86
2021/08/27 02:45:19;;;;;;;3.63;2.30;;;15.00;99.90;;;;;;5026741;28;24455;-83
2021/08/27 02:47:44;;;;;;;4.57;2.30;;;15.00;99.90;;;;;;5009262;28;24823;-85
2021/08/27 02:50:12;;;;;;;4.23;2.13;;;15.50;99.90;;;;;;5025388;28;24451;-85
2021/08/27 02:52:56;;;;;;;3.28;2.28;;;15.10;99.90;;;;;;5028058;28;24438;-86
2021/08/27 02:55:29;;;;;;;2.85;2.15;;;15.10;99.90;;;;;;5025861;28;24424;-87
2021/08/27 02:58:03;;;;;;;4.57;2.27;;;15.10;99.90;;;;;;5014903;28;24432;-86
2021/08/27 03:00:33;;;;;;;3.20;2.00;;;15.10;99.90;;;;;;5024369;28;24434;-87
2021/08/27 03:03:01;;;;;;;4.75;1.90;;;15.10;99.90;;;;;;5026232;28;24580;-85
2021/08/27 03:05:38;;;;;;;3.60;2.00;;;15.10;99.90;;;;;;5012394;28;24423;-87
2021/08/27 03:08:14;;;;;;;3.53;2.20;;;15.10;99.90;;;;;;5026236;28;24413;-83
2021/08/27 03:10:44;;;;;;;3.78;2.20;;;15.10;99.90;;;;;;5004802;28;24440;-84
2021/08/27 03:13:16;;;;;;;3.47;2.10;;;15.20;99.90;;;;;;5011607;28;24450;-90
2021/08/27 03:15:53;;;;;;;3.00;1.98;;;15.20;99.90;;;;;;5008462;28;24428;-85
2021/08/27 03:18:37;;;;;;;3.87;2.30;;;15.20;99.90;;;;;;5008217;28;25170;-85
2021/08/27 03:21:08;;;;;;;3.60;2.10;;;15.20;99.90;;;;;;5018877;28;24552;-88
2021/08/27 03:23:37;;;;;;;2.90;2.00;;;15.30;99.90;;;;;;5022143;28;24527;-84
2021/08/27 03:26:06;;;;;;;3.30;2.03;;;15.20;99.90;;;;;;5027272;28;24432;-88
2021/08/27 03:28:39;;;;;;;4.03;2.30;;;15.30;99.90;;;;;;5025324;28;26075;-88
2021/08/27 03:31:06;;;;;;;2.90;2.10;;;15.30;99.90;;;;;;5023356;28;24590;-86
2021/08/27 03:33:33;;;;;;;4.07;2.30;;;15.20;99.90;;;;;;5029121;28;24611;-84
2021/08/27 03:36:02;;;;;;;3.80;2.13;;;15.30;99.90;;;;;;5028305;28;24417;-88
2021/08/27 03:38:28;;;;;;;3.40;2.30;;;15.20;99.90;;;;;;5030597;28;24614;-86
2021/08/27 03:40:56;;;;;;;4.07;2.35;;;15.20;99.90;;;;;;5034554;28;24470;-84
2021/08/27 03:43:23;;;;;;;3.75;2.30;;;15.20;99.90;;;;;;5030562;28;24451;-88
2021/08/27 03:45:51;;;;;;;3.65;2.30;;;15.20;99.90;;;;;;5030388;28;24452;-84
2021/08/27 03:48:25;;;;;;;3.10;2.20;;;15.20;99.90;;;;;;5029436;28;24551;-87
2021/08/27 03:50:54;;;;;;;3.95;2.40;;;15.50;99.90;;;;;;5025977;28;24444;-86
2021/08/27 03:53:21;;;;;;;2.75;2.00;;;15.20;99.90;;;;;;5029918;28;24459;-87
2021/08/27 03:55:52;;;;;;;4.78;2.30;;;15.30;99.90;;;;;;5012048;28;24431;-86
2021/08/27 03:58:23;;;;;;;3.92;2.20;;;15.30;99.90;;;;;;5032886;28;24420;-87
2021/08/27 04:00:50;;;;;;;5.97;2.30;;;15.30;99.90;;;;;;5032906;28;24536;-86
2021/08/27 04:03:20;;;;;;;2.87;2.20;;;15.30;99.90;;;;;;5016867;28;24517;-87
2021/08/27 04:06:05;;;;;;;4.00;2.20;;;15.30;99.90;;;;;;5032247;28;24507;-85
2021/08/27 04:08:34;;;;;;;4.20;2.10;;;15.30;99.90;;;;;;5017803;28;24467;-87
2021/08/27 04:10:59;;;;;;;3.15;2.25;;;15.30;99.90;;;;;;5032724;28;24515;-85
2021/08/27 04:13:27;;;;;;;4.80;2.33;;;15.30;99.90;;;;;;5033599;28;24681;-84
2021/08/27 04:15:52;;;;;;;4.68;2.40;;;15.30;99.90;;;;;;5030847;28;24548;-86
2021/08/27 04:18:18;;;;;;;3.10;2.10;;;15.50;99.90;;;;;;5033783;28;24994;-87
2021/08/27 04:20:44;;;;;;;5.15;2.40;;;15.30;99.90;;;;;;5032603;28;24438;-83
2021/08/27 04:23:10;;;;;;;2.53;2.00;;;15.30;99.90;;;;;;5031233;28;24435;-85
2021/08/27 04:25:35;;;;;;;3.17;2.15;;;15.50;99.90;;;;;;5033810;28;24427;-86
2021/08/27 04:28:03;;;;;;;5.40;2.67;;;15.30;99.90;;;;;;5015684;28;24512;-85
2021/08/27 04:30:29;;;;;;;4.45;2.20;;;15.30;99.90;;;;;;5028188;28;24580;-85
2021/08/27 04:33:04;;;;;;;3.80;2.20;;;15.30;99.90;;;;;;5018024;28;24448;-83
2021/08/27 04:35:29;;;;;;;4.03;2.30;;;15.30;99.90;;;;;;5032259;28;25010;-86
2021/08/27 04:38:03;;;;;;;3.50;2.30;;;15.30;99.90;;;;;;5035342;28;24432;-86
2021/08/27 04:40:28;;;;;;;4.22;2.00;;;15.30;99.90;;;;;;5033137;28;24471;-83
2021/08/27 04:42:54;;;;;;;6.20;2.40;;;15.30;99.90;;;;;;5031410;28;24574;-85
2021/08/27 04:45:22;;;;;;;4.70;2.27;;;15.30;99.90;;;;;;5028986;28;24423;-85
2021/08/27 04:47:48;;;;;;;2.95;2.08;;;15.30;99.90;;;;;;5033301;28;24424;-86
2021/08/27 04:50:16;;;;;;;4.32;2.10;;;15.30;99.90;;;;;;5031887;28;24555;-87
2021/08/27 04:52:41;;;;;;;4.10;2.20;;;15.30;99.90;;;;;;5037135;28;24448;-84
2021/08/27 04:55:07;;;;;;;3.67;2.00;;;15.30;99.90;;;;;;5034373;28;24481;-81
2021/08/27 04:57:33;;;;;;;3.28;2.00;;;15.40;99.90;;;;;;5023494;28;24427;-82
2021/08/27 05:00:01;;;;;;;3.23;2.10;;;15.50;99.90;;;;;;5008760;28;24443;-82
2021/08/27 05:02:26;;;;;;;2.97;1.98;;;15.50;99.90;;;;;;5019952;28;24494;-81
2021/08/27 05:04:52;;;;;;;2.90;2.00;;;15.50;99.90;;;;;;5022308;28;24776;-82
2021/08/27 05:07:20;;;;;;;3.00;1.90;;;15.50;99.90;;;;;;5021763;28;25098;-83
2021/08/27 05:09:45;;;;;;;2.70;2.00;;;15.60;99.90;;;;;;5023948;28;24454;-88
2021/08/27 05:12:11;;;;;;;2.87;1.90;;;15.70;99.90;;;;;;5016985;28;24428;-87
2021/08/27 05:14:39;;;;;;;3.13;1.80;;;15.60;99.90;;;;;;5004784;28;24420;-84
2021/08/27 05:17:07;;;;;;;3.65;2.28;;;15.70;99.90;;;;;;5011890;28;25843;-87
2021/08/27 05:19:33;;;;;;;3.45;2.00;;;15.70;99.90;;;;;;5013690;28;24455;-85
2021/08/27 05:22:00;;;;;;;2.47;1.90;;;15.70;99.90;;;;;;5031808;28;24425;-86
2021/08/27 05:24:26;;;;;;;4.90;1.47;;;15.70;99.90;;;;;;5027057;28;20185;-85
2021/08/27 05:26:54;;;;;;;4.60;1.93;;;15.70;99.90;;;;;;5021904;28;21081;-87
2021/08/27 05:29:20;;;;;;;3.00;1.70;;;15.60;99.90;;;;;;5021986;28;20188;-87
2021/08/27 05:31:46;;;;;;;2.20;1.80;;;15.50;99.90;;;;;;5022182;28;20641;-84
2021/08/27 05:34:11;;;;;;;2.00;1.40;;;15.50;99.90;;;;;;5021746;28;20744;-84
2021/08/27 05:36:39;;;;;;;3.57;1.40;;;15.50;99.90;;;;;;5029320;28;20215;-84
2021/08/27 05:39:05;;;;;;;2.53;1.67;;;15.40;99.90;;;;;;5027818;28;20188;-87
2021/08/27 05:41:33;;;;;;;2.67;1.50;;;15.50;99.90;;;;;;5024884;28;21072;-87
2021/08/27 05:43:59;;;;;;;2.00;1.30;;;15.50;99.90;;;;;;5024405;28;20270;-87
2021/08/27 05:46:24;;;;;;;2.53;1.50;;;15.50;99.90;;;;;;5030675;28;20640;-87
2021/08/27 05:48:52;;;;;;;2.40;1.47;;;15.50;99.90;;;;;;5022905;28;20221;-88
2021/08/27 05:51:25;;;;;;;2.37;1.47;;;15.50;99.90;;;;;;5029647;28;23635;-88
2021/08/27 05:53:53;;;;;;;2.83;1.53;;;15.40;99.90;;;;;;5028129;28;20695;-87
2021/08/27 05:56:18;;;;;;;2.97;1.37;;;15.40;99.90;;;;;;5029376;28;20636;-84
2021/08/27 05:58:48;;;;;;;3.20;1.70;;;15.40;99.90;;;;;;5028976;28;20619;-87
2021/08/27 06:01:14;;;;;;;3.70;1.80;;;15.50;99.90;;;;;;5015651;28;20222;-86
2021/08/27 06:03:40;;;;;;;2.13;1.30;;;15.60;99.90;;;;;;5023300;28;20619;-84
2021/08/27 06:06:05;;;;;;;1.80;1.70;;;15.50;99.90;;;;;;5021728;28;22074;-86
2021/08/27 06:08:31;;;;;;;1.70;1.33;;;15.50;99.90;;;;;;5012672;28;20189;-84
2021/08/27 06:10:56;;;;;;;1.53;1.40;;;15.60;99.90;;;;;;5021939;28;20311;-84
2021/08/27 06:13:22;;;;;;;3.03;1.90;;;15.60;99.90;;;;;;5030014;28;20210;-85
2021/08/27 06:15:47;;;;;;;1.97;1.53;;;15.80;99.90;;;;;;5012929;28;20716;-84
2021/08/27 06:18:16;;;;;;;1.70;1.50;;;15.80;99.90;;;;;;5030748;28;20189;-84
2021/08/27 06:20:41;;;;;;;1.90;1.50;;;15.50;99.90;;;;;;5011654;28;20209;-87
2021/08/27 06:23:07;;;;;;;2.40;1.87;;;15.60;99.90;;;;;;5032034;28;20877;-84
2021/08/27 06:25:33;;;;;;;2.40;1.60;;;15.50;99.90;;;;;;5028691;28;20221;-84
2021/08/27 06:27:58;;;;;;;1.83;1.40;;;15.50;99.90;;;;;;5029595;28;20189;-85
2021/08/27 06:30:24;;;;;;;1.83;1.50;;;15.50;99.90;;;;;;5015991;28;20212;-85
2021/08/27 06:32:49;;;;;;;1.37;1.27;;;15.50;99.90;;;;;;5030188;28;20285;-85
2021/08/27 06:35:15;;;;;;;1.67;1.30;;;15.50;99.90;;;;;;5031956;28;20246;-86
2021/08/27 06:40:25;;;;;;;1.93;1.40;;;15.50;99.90;;;;;;5033091;28;21090;-83
2021/08/27 06:42:51;;;;;;;1.17;0.90;;;15.50;99.90;;;;;;5022053;28;20631;-83
2021/08/27 06:45:17;;;;;;;2.30;1.57;;;15.50;99.90;;;;;;5030850;28;20248;-84
2021/08/27 06:47:42;;;;;;;1.57;1.33;;;15.50;99.90;;;;;;5025915;28;20756;-87
2021/08/27 06:50:08;;;;;;;1.90;1.30;;;15.50;99.90;;;;;;5015862;28;20216;-87
2021/08/27 06:52:33;;;;;;;1.87;1.40;;;15.50;99.90;;;;;;5012310;28;20213;-83
2021/08/27 06:54:59;;;;;;;1.30;1.20;;;15.60;99.90;;;;;;5020818;28;20227;-83
2021/08/27 06:57:25;;;;;;;2.30;1.97;;;15.60;99.90;;;;;;5033275;28;20196;-87
2021/08/27 06:59:50;;;;;;;1.43;1.33;;;15.70;99.90;;;;;;5031746;28;20212;-84
2021/08/27 07:02:16;;;;;;;1.37;1.27;;;15.70;99.90;;;;;;5031588;28;20197;-84
2021/08/27 07:04:41;;;;;;;2.10;1.60;;;15.70;99.90;;;;;;5012311;28;20358;-85
2021/08/27 07:07:07;;;;;;;3.00;1.53;;;15.70;99.90;;;;;;5029518;28;20189;-85
2021/08/27 07:09:33;;;;;;;1.37;1.27;;;15.80;99.90;;;;;;5031928;28;20209;-85
2021/08/27 07:11:58;;;;;;;1.63;1.47;;;15.80;99.90;;;;;;5033145;28;20185;-86
2021/08/27 07:14:24;;;;;;;1.70;1.60;;;15.80;99.90;;;;;;5011473;28;20295;-87
2021/08/27 07:16:49;;;;;;;1.70;1.57;;;15.80;99.90;;;;;;5009423;28;20240;-85
2021/08/27 07:19:15;;;;;;;1.57;1.47;;;15.90;99.90;;;;;;5031428;28;20201;-86
2021/08/27 07:21:40;;;;;;;2.07;1.87;;;15.90;99.90;;;;;;5029343;28;20214;-84
2021/08/27 07:24:06;;;;;;;1.50;1.40;;;15.90;99.90;;;;;;5030730;28;20200;-84
2021/08/27 07:26:31;;;;;;;2.70;1.70;;;15.90;99.90;;;;;;5029189;28;20259;-84
2021/08/27 07:28:57;;;;;;;2.20;2.00;;;16.00;99.90;;;;;;5031763;28;20188;-84
2021/08/27 07:31:22;;;;;;;2.37;1.93;;;16.00;99.90;;;;;;5015400;28;20270;-83
2021/08/27 07:33:49;;;;;;;2.77;1.70;;;16.00;99.90;;;;;;5013639;28;20315;-84
2021/08/27 07:36:15;;;;;;;2.17;1.50;;;16.00;99.90;;;;;;5028495;28;20224;-85
2021/08/27 07:38:42;;;;;;;1.80;1.30;;;16.20;99.90;;;;;;5027661;28;20638;-87
2021/08/27 07:41:08;;;;;;;2.30;1.63;;;16.00;99.90;;;;;;5015232;28;20580;-84
2021/08/27 07:43:33;;;;;;;1.83;1.73;;;16.00;99.90;;;;;;5028270;28;20654;-87
2021/08/27 07:46:02;;;;;;;1.63;1.53;;;16.10;99.90;;;;;;5032087;28;20225;-84
2021/08/27 07:48:28;;;;;;;2.20;1.80;;;16.20;99.90;;;;;;5010287;28;20203;-84
2021/08/27 07:50:54;;;;;;;1.53;1.43;;;16.20;99.90;;;;;;5027296;28;20647;-85
2021/08/27 07:53:19;;;;;;;1.83;1.73;;;16.30;99.90;;;;;;5030112;28;20658;-86
2021/08/27 07:55:45;;;;;;;1.80;1.70;;;16.30;99.90;;;;;;5025363;28;20235;-83
2021/08/27 07:58:11;;;;;;;2.63;1.90;;;16.30;99.90;;;;;;5029991;28;20618;-84
2021/08/27 08:00:37;;;;;;;1.57;1.47;;;16.40;99.90;;;;;;5031997;28;20647;-88
2021/08/27 08:03:03;;;;;;;2.70;1.80;;;16.40;99.90;;;;;;5029718;28;20958;-86
2021/08/27 08:05:29;;;;;;;1.37;1.27;;;16.60;99.90;;;;;;5021366;28;20330;-86
2021/08/27 08:07:54;;;;;;;1.63;1.53;;;16.40;99.90;;;;;;5027226;28;20691;-85
2021/08/27 08:10:20;;;;;;;1.80;1.70;;;16.50;99.90;;;;;;5030209;28;20270;-86
2021/08/27 08:12:46;;;;;;;1.83;1.73;;;16.50;99.90;;;;;;5030654;28;20219;-87
2021/08/27 08:15:11;;;;;;;1.67;1.30;;;16.60;99.90;;;;;;5029404;28;20307;-85
2021/08/27 08:17:37;;;;;;;2.33;1.50;;;16.60;99.90;;;;;;5008677;28;20188;-85
2021/08/27 08:20:04;;;;;;;1.70;1.53;;;16.70;99.90;;;;;;5031710;28;20208;-88
2021/08/27 08:22:30;;;;;;;2.13;1.80;;;16.80;99.90;;;;;;5015591;28;20289;-83
2021/08/27 08:24:56;;;;;;;2.10;1.90;;;16.80;99.90;;;;;;5014558;28;20658;-84
2021/08/27 08:27:22;;;;;;;1.80;1.70;;;16.80;99.90;;;;;;5032451;28;20242;-87
2021/08/27 08:29:48;;;;;;;1.67;1.57;;;16.80;99.90;;;;;;5032511;28;20276;-84
2021/08/27 08:32:13;;;;;;;3.30;2.10;;;16.90;99.90;;;;;;5034635;28;20655;-85
2021/08/27 08:34:39;;;;;;;1.97;1.87;;;17.00;99.90;;;;;;5015939;28;20658;-86
2021/08/27 08:37:08;;;;;;;2.33;1.70;;;17.10;99.90;;;;;;5035304;28;20185;-85
2021/08/27 08:39:35;;;;;;;1.70;1.60;;;17.10;99.90;;;;;;5032508;28;20204;-86
2021/08/27 08:42:01;;;;;;;3.10;2.27;;;17.10;99.90;;;;;;5033337;28;20621;-88
2021/08/27 08:44:26;;;;;;;2.00;1.90;;;17.10;99.90;;;;;;5035482;28;20606;-83
2021/08/27 08:46:54;;;;;;;1.80;1.53;;;17.20;99.90;;;;;;5034211;28;20295;-87
2021/08/27 08:49:24;;;;;;;2.30;1.70;;;17.30;99.90;;;;;;5013752;28;20204;-84
2021/08/27 08:51:52;;;;;;;2.60;2.10;;;17.30;99.90;;;;;;5028714;28;20619;-87
2021/08/27 08:54:19;;;;;;;1.50;1.40;;;17.40;99.90;;;;;;5034373;28;20698;-84
2021/08/27 08:56:45;;;;;;;2.60;1.63;;;17.40;99.90;;;;;;5031704;28;20642;-86
2021/08/27 08:59:11;;;;;;;2.77;1.60;;;17.50;99.90;;;;;;5031820;28;20604;-84
2021/08/27 09:01:37;;;;;;;1.40;1.30;;;17.60;99.90;;;;;;5021732;28;20624;-84
2021/08/27 09:04:04;;;;;;;1.90;1.80;;;17.60;99.90;;;;;;5034072;28;20619;-84
2021/08/27 09:06:30;;;;;;;2.70;1.43;;;17.60;99.90;;;;;;5029899;28;21015;-83
2021/08/27 09:08:59;;;;;;;2.77;1.80;;;17.90;99.90;;;;;;5033125;28;20627;-85
2021/08/27 09:11:26;;;;;;;1.67;1.57;;;17.60;99.90;;;;;;5026032;28;20669;-83
2021/08/27 09:13:54;;;;;;;2.00;1.80;;;17.70;99.90;;;;;;5015051;28;20636;-86
2021/08/27 09:16:32;;;;;;;1.70;1.60;;;17.70;99.90;;;;;;5027238;28;20641;-85
2021/08/27 09:18:58;;;;;;;1.40;1.40;;;17.70;99.90;;;;;;5031497;28;21158;-87
2021/08/27 09:21:35;;;;;;;2.53;1.63;;;17.70;99.90;;;;;;5012416;28;20693;-83
2021/08/27 09:24:19;;;;;;;3.17;1.90;;;17.70;99.90;;;;;;5034338;28;20591;-88
2021/08/27 09:27:07;;;;;;;2.07;1.97;;;17.70;99.90;;;;;;5013741;28;20657;-87
2021/08/27 09:29:38;;;;;;;1.70;1.60;;;17.70;99.90;;;;;;5015742;28;20635;-86
2021/08/27 09:32:21;;;;;;;2.00;1.80;;;17.80;99.90;;;;;;5033896;28;20622;-83
2021/08/27 09:34:47;;;;;;;3.27;1.40;;;17.90;99.90;;;;;;5030802;28;20666;-85
2021/08/27 09:37:12;;;;;;;1.73;1.53;;;18.00;99.90;;;;;;5033372;28;20619;-85
2021/08/27 09:39:38;;;;;;;1.73;1.27;;;18.20;99.90;;;;;;5031904;28;20647;-85
2021/08/27 09:42:04;;;;;;;1.60;1.50;;;18.30;99.90;;;;;;5018957;28;20197;-84
2021/08/27 09:44:30;;;;;;;1.60;1.50;;;18.40;99.90;;;;;;5031541;28;20628;-85
2021/08/27 09:46:55;;;;;;;2.27;1.70;;;18.60;99.90;;;;;;5033631;28;20192;-85
2021/08/27 09:49:27;;;;;;;1.30;1.20;;;19.00;99.90;;;;;;5033415;28;20638;-88
2021/08/27 09:52:16;;;;;;;2.00;1.10;;;18.80;99.90;;;;;;5033858;28;20185;-86
2021/08/27 09:54:46;;;;;;;1.50;1.40;;;19.00;99.90;;;;;;5016667;28;20631;-85
2021/08/27 09:57:13;;;;;;;1.40;1.30;;;19.00;99.90;;;;;;5033547;28;20596;-84
2021/08/27 09:59:39;;;;;;;1.63;1.30;;;19.00;99.90;;;;;;5012137;28;22209;-84
2021/08/27 10:02:16;;;;;;;3.40;1.00;;;19.10;99.90;;;;;;5032579;28;20634;-83
2021/08/27 10:04:59;;;;;;;1.33;1.23;;;19.20;99.90;;;;;;5030669;28;21197;-84
2021/08/27 10:07:37;;;;;;;1.30;1.20;;;19.60;99.90;;;;;;5020548;28;21034;-83
2021/08/27 10:10:08;;;;;;;1.50;1.40;;;19.20;99.90;;;;;;5032726;28;21103;-84
2021/08/27 10:12:36;;;;;;;1.23;1.13;;;19.20;99.90;;;;;;5032846;28;20630;-84
2021/08/27 10:15:04;;;;;;;1.30;1.10;;;19.20;99.90;;;;;;5031712;28;20639;-85
2021/08/27 10:17:30;;;;;;;1.00;1.00;;;19.30;99.90;;;;;;5028711;28;20620;-84
2021/08/27 10:19:56;;;;;;;1.00;0.90;;;19.30;99.90;;;;;;5033493;28;20660;-83
2021/08/27 10:22:22;;;;;;;1.00;1.00;;;19.40;99.90;;;;;;5028849;28;20248;-85
2021/08/27 10:24:49;;;;;;;1.37;1.10;;;19.40;99.90;;;;;;5031674;28;20643;-84
2021/08/27 10:27:15;;;;;;;1.63;1.10;;;19.40;99.90;;;;;;5032019;28;20622;-83
2021/08/27 10:29:48;;;;;;;1.27;1.10;;;19.40;99.90;;;;;;5032077;28;20664;-85
2021/08/27 10:32:40;;;;;;;1.30;1.10;;;19.50;99.90;;;;;;5033252;28;20627;-86
2021/08/27 10:35:24;;;;;;;1.57;1.47;;;19.50;99.90;;;;;;5024322;28;20640;-83
2021/08/27 10:37:51;;;;;;;1.43;1.33;;;19.60;99.90;;;;;;5034197;28;20607;-86
2021/08/27 10:40:22;;;;;;;1.20;1.10;;;19.50;99.90;;;;;;5034542;28;20643;-85
2021/08/27 10:42:57;;;;;;;1.17;1.10;;;19.50;99.90;;;;;;5027502;28;20639;-87
2021/08/27 10:45:38;;;;;;;1.50;1.40;;;19.50;99.90;;;;;;5029672;28;20635;-84
2021/08/27 10:48:11;;;;;;;1.00;1.00;;;19.50;99.90;;;;;;5032626;28;20623;-83
2021/08/27 10:50:38;;;;;;;1.70;1.00;;;19.70;99.90;;;;;;5032056;28;20746;-85
2021/08/27 10:53:25;;;;;;;1.33;1.23;;;19.70;99.90;;;;;;5030709;28;20647;-84
2021/08/27 10:55:52;;;;;;;1.90;1.63;;;19.90;99.90;;;;;;5024331;28;20635;-83
2021/08/27 10:58:21;;;;;;;1.40;1.30;;;20.00;99.90;;;;;;5015868;28;20662;-87
2021/08/27 11:00:52;;;;;;;1.77;1.10;;;20.10;99.90;;;;;;5011842;28;20659;-87
2021/08/27 11:03:19;;;;;;;1.30;1.10;;;20.20;99.90;;;;;;5032424;28;20639;-84
2021/08/27 11:05:47;;;;;;;1.10;1.00;;;20.30;99.90;;;;;;5014040;28;20643;-84
2021/08/27 11:08:18;;;;;;;1.90;1.30;;;20.30;99.90;;;;;;5032895;28;20614;-83
2021/08/27 11:11:03;;;;;;;1.20;1.10;;;20.30;99.90;;;;;;5017830;28;20722;-85
2021/08/27 11:13:38;;;;;;;1.20;1.10;;;20.30;99.90;;;;;;5034522;28;20617;-83
2021/08/27 11:16:23;;;;;;;1.50;1.23;;;20.30;99.90;;;;;;5031073;28;20633;-84
2021/08/27 11:18:52;;;;;;;1.53;1.43;;;20.30;99.90;;;;;;5018361;28;20635;-83
2021/08/27 11:21:47;;;;;;;1.37;1.17;;;20.20;99.90;;;;;;5030506;28;20643;-84
2021/08/27 11:24:22;;;;;;;1.27;1.10;;;20.20;99.90;;;;;;4999620;28;20619;-82
2021/08/27 11:27:01;;;;;;;2.07;1.87;;;20.20;99.90;;;;;;5030693;28;20623;-83
2021/08/27 11:29:34;;;;;;;1.40;1.30;;;20.30;99.90;;;;;;5029303;28;20587;-83
2021/08/27 11:32:19;;;;;;;1.07;1.00;;;20.40;99.90;;;;;;5025464;28;20607;-82
2021/08/27 11:34:52;;;;;;;1.53;1.17;;;20.60;99.90;;;;;;5007806;28;20656;-84
2021/08/27 11:37:20;;;;;;;2.23;1.03;;;20.80;99.90;;;;;;5031565;28;20708;-83
2021/08/27 11:39:47;;;;;;;1.13;1.03;;;20.90;99.90;;;;;;5032926;28;21098;-83
2021/08/27 11:42:14;;;;;;;1.27;1.17;;;21.00;99.90;;;;;;5030196;28;20642;-83
2021/08/27 11:44:54;;;;;;;1.20;1.10;;;21.20;99.90;;;;;;5022789;28;21063;-84
2021/08/27 11:47:21;;;;;;;1.03;1.00;;;21.40;99.90;;;;;;5025676;28;20635;-84
2021/08/27 11:49:55;;;;;;;1.20;1.10;;;21.50;99.90;;;;;;5025998;28;20651;-84
2021/08/27 11:52:29;;;;;;;1.00;1.00;;;21.50;99.90;;;;;;5024147;28;20625;-84
2021/08/27 11:55:04;;;;;;;1.00;1.00;;;21.50;99.90;;;;;;5013333;28;20786;-83
2021/08/27 11:57:30;;;;;;;1.10;1.00;;;21.40;99.90;;;;;;5028058;28;20692;-83
2021/08/27 12:00:13;;;;;;;1.10;1.00;;;21.60;99.90;;;;;;5016321;28;20651;-83
2021/08/27 12:02:39;;;;;;;1.00;1.00;;;21.30;99.90;;;;;;5028792;28;20660;-82
2021/08/27 12:05:10;;;;;;;1.13;1.10;;;21.00;99.90;;;;;;5022760;28;20612;-85
2021/08/27 12:07:40;;;;;;;1.27;1.20;;;20.80;99.90;;;;;;5024114;28;20268;-83
2021/08/27 12:10:11;;;;;;;1.23;1.10;;;20.70;99.90;;;;;;5026130;28;20662;-83
2021/08/27 12:12:39;;;;;;;1.70;1.60;;;20.40;99.90;;;;;;5025580;28;20703;-83
2021/08/27 12:15:07;;;;;;;3.07;1.80;;;20.20;99.90;;;;;;5028276;28;20643;-84
2021/08/27 12:17:33;;;;;;;3.17;1.50;;;20.00;99.90;;;;;;5020215;28;20612;-86
2021/08/27 12:20:00;;;;;;;1.63;1.20;;;20.20;99.90;;;;;;5031793;28;20635;-84
2021/08/27 12:22:29;;;;;;;1.60;1.50;;;19.80;99.90;;;;;;5030532;28;20303;-83
2021/08/27 12:24:55;;;;;;;2.83;1.47;;;19.80;99.90;;;;;;5028357;28;20651;-83
2021/08/27 12:27:22;;;;;;;1.60;1.50;;;19.90;99.90;;;;;;5030400;28;20623;-83
2021/08/27 12:30:10;;;;;;;2.33;1.97;;;20.30;99.90;;;;;;5031020;28;21007;-80
2021/08/27 12:32:44;;;;;;;1.63;1.37;;;20.10;99.90;;;;;;5025340;28;20681;-82
2021/08/27 12:35:13;;;;;;;1.80;1.70;;;20.10;99.90;;;;;;5023150;28;21244;-81
2021/08/27 12:37:40;;;;;;;1.53;1.43;;;20.10;99.90;;;;;;5025266;28;21287;-82
2021/08/27 12:40:15;;;;;;;1.70;1.60;;;20.40;99.90;;;;;;5032711;28;20806;-80
2021/08/27 12:42:56;;;;;;;2.47;2.27;;;20.10;99.90;;;;;;5030876;28;20634;-81
2021/08/27 12:45:21;;;;;;;4.57;3.40;;;20.10;99.90;;;;;;5036488;28;20639;-78
2021/08/27 12:47:47;;;;;;;2.90;2.70;;;20.30;99.90;;;;;;5034679;28;21042;-78
2021/08/27 12:50:14;;;;;;;3.43;3.00;;;20.50;99.90;;;;;;5038196;28;20211;-78
2021/08/27 12:53:07;;;;;;;2.40;2.20;;;20.90;99.90;;;;;;5036134;28;20669;-78
2021/08/27 12:55:33;;;;;;;1.90;1.03;;;21.20;99.90;;;;;;5029102;28;20749;-78
2021/08/27 12:57:59;;;;;;;1.10;0.90;;;21.40;99.90;;;;;;5034575;28;20626;-78
2021/08/27 13:00:27;;;;;;;1.13;0.90;;;21.40;99.90;;;;;;5034150;28;21075;-78
2021/08/27 13:03:05;;;;;;;0.83;0.83;;;21.30;99.90;;;;;;5032874;28;20619;-78